sensor_id;sensor_type;location;lat;lon;timestamp;pressure;altitude;pressure_sealevel;temperature;humidity
48652;BME280;34442;52.362;-1.302;2023-03-03T00:00:57;101529.59;;;5.70;100.00
48652;BME280;34442;52.362;-1.302;2023-03-03T00:03:24;101527.53;;;5.64;100.00
48652;BME280;34442;52.362;-1.302;2023-03-03T00:05:51;101523.31;;;5.62;100.00
48652;BME280;34442;52.362;-1.302;2023-03-03T00:08:18;101530.31;;;5.63;100.00
48652;BME280;34442;52.362;-1.302;2023-03-03T00:10:45;101529.66;;;5.61;100.00
48652;BME280;34442;52.362;-1.302;2023-03-03T00:13:16;101534.28;;;5.59;100.00
48652;BME280;34442;52.362;-1.302;2023-03-03T00:15:43;101538.94;;;5.47;100.00
48652;BME280;34442;52.362;-1.302;2023-03-03T00:18:19;101531.50;;;5.51;100.00
48652;BME280;34442;52.362;-1.302;2023-03-03T00:20:55;101536.81;;;5.60;100.00
48652;BME280;34442;52.362;-1.302;2023-03-03T00:23:33;101535.25;;;5.58;100.00
48652;BME280;34442;52.362;-1.302;2023-03-03T00:25:59;101526.88;;;5.53;100.00
48652;BME280;34442;52.362;-1.302;2023-03-03T00:28:26;101532.75;;;5.46;100.00
48652;BME280;34442;52.362;-1.302;2023-03-03T00:30:53;101529.97;;;5.48;100.00
48652;BME280;34442;52.362;-1.302;2023-03-03T00:33:26;101521.66;;;5.61;100.00
48652;BME280;34442;52.362;-1.302;2023-03-03T00:35:52;101532.31;;;5.61;100.00
48652;BME280;34442;52.362;-1.302;2023-03-03T00:38:19;101523.06;;;5.55;100.00
48652;BME280;34442;52.362;-1.302;2023-03-03T00:40:46;101524.19;;;5.53;100.00
48652;BME280;34442;52.362;-1.302;2023-03-03T00:43:19;101529.41;;;5.44;100.00
48652;BME280;34442;52.362;-1.302;2023-03-03T00:45:48;101525.19;;;5.42;100.00
48652;BME280;34442;52.362;-1.302;2023-03-03T00:50:49;101529.31;;;5.36;100.00
48652;BME280;34442;52.362;-1.302;2023-03-03T00:53:17;101522.81;;;5.39;100.00
48652;BME280;34442;52.362;-1.302;2023-03-03T00:55:44;101525.91;;;5.34;100.00
48652;BME280;34442;52.362;-1.302;2023-03-03T00:58:10;101524.41;;;5.32;100.00
48652;BME280;34442;52.362;-1.302;2023-03-03T01:00:36;101519.19;;;5.30;100.00
48652;BME280;34442;52.362;-1.302;2023-03-03T01:03:04;101527.34;;;5.29;100.00
48652;BME280;34442;52.362;-1.302;2023-03-03T01:05:30;101519.91;;;5.32;100.00
48652;BME280;34442;52.362;-1.302;2023-03-03T01:07:55;101525.91;;;5.34;100.00
48652;BME280;34442;52.362;-1.302;2023-03-03T01:10:20;101527.47;;;5.37;100.00
48652;BME280;34442;52.362;-1.302;2023-03-03T01:12:46;101525.34;;;5.40;100.00
48652;BME280;34442;52.362;-1.302;2023-03-03T01:15:13;101528.59;;;5.34;100.00
48652;BME280;34442;52.362;-1.302;2023-03-03T01:17:39;101528.03;;;5.31;100.00
48652;BME280;34442;52.362;-1.302;2023-03-03T01:20:08;101524.41;;;5.32;100.00
48652;BME280;34442;52.362;-1.302;2023-03-03T01:22:34;101530.69;;;5.40;100.00
48652;BME280;34442;52.362;-1.302;2023-03-03T01:25:00;101532.41;;;5.22;100.00
48652;BME280;34442;52.362;-1.302;2023-03-03T01:27:28;101533.78;;;5.26;100.00
48652;BME280;34442;52.362;-1.302;2023-03-03T01:29:53;101537.47;;;5.15;100.00
48652;BME280;34442;52.362;-1.302;2023-03-03T01:32:21;101543.53;;;5.08;100.00
48652;BME280;34442;52.362;-1.302;2023-03-03T01:34:46;101545.91;;;5.11;100.00
48652;BME280;34442;52.362;-1.302;2023-03-03T01:37:12;101546.47;;;5.14;100.00
48652;BME280;34442;52.362;-1.302;2023-03-03T01:39:37;101543.06;;;5.22;100.00
48652;BME280;34442;52.362;-1.302;2023-03-03T01:42:03;101541.28;;;5.22;100.00
48652;BME280;34442;52.362;-1.302;2023-03-03T01:44:28;101547.72;;;5.20;100.00
48652;BME280;34442;52.362;-1.302;2023-03-03T01:49:46;101547.69;;;5.30;100.00
48652;BME280;34442;52.362;-1.302;2023-03-03T01:52:22;101542.22;;;5.31;100.00
48652;BME280;34442;52.362;-1.302;2023-03-03T01:54:54;101538.84;;;5.29;100.00
48652;BME280;34442;52.362;-1.302;2023-03-03T01:57:32;101544.16;;;5.39;100.00
48652;BME280;34442;52.362;-1.302;2023-03-03T02:00:02;101543.94;;;5.13;100.00
48652;BME280;34442;52.362;-1.302;2023-03-03T02:02:29;101548.56;;;5.11;100.00
48652;BME280;34442;52.362;-1.302;2023-03-03T02:04:56;101552.91;;;5.12;100.00
48652;BME280;34442;52.362;-1.302;2023-03-03T02:07:23;101554.31;;;4.96;100.00
48652;BME280;34442;52.362;-1.302;2023-03-03T02:09:55;101557.69;;;5.08;100.00
48652;BME280;34442;52.362;-1.302;2023-03-03T02:12:28;101553.47;;;5.06;100.00
48652;BME280;34442;52.362;-1.302;2023-03-03T02:14:55;101561.34;;;5.07;100.00
48652;BME280;34442;52.362;-1.302;2023-03-03T02:17:21;101548.81;;;5.17;100.00
48652;BME280;34442;52.362;-1.302;2023-03-03T02:28:27;101557.97;;;4.95;100.00
48652;BME280;34442;52.362;-1.302;2023-03-03T02:30:54;101555.16;;;4.97;100.00
48652;BME280;34442;52.362;-1.302;2023-03-03T02:33:21;101565.00;;;5.06;100.00
48652;BME280;34442;52.362;-1.302;2023-03-03T02:35:46;101558.41;;;5.10;100.00
48652;BME280;34442;52.362;-1.302;2023-03-03T02:38:20;101553.72;;;5.22;100.00
48652;BME280;34442;52.362;-1.302;2023-03-03T02:40:58;101552.75;;;5.33;100.00
48652;BME280;34442;52.362;-1.302;2023-03-03T02:43:33;101561.72;;;5.32;100.00
48652;BME280;34442;52.362;-1.302;2023-03-03T02:46:01;101546.16;;;5.17;100.00
48652;BME280;34442;52.362;-1.302;2023-03-03T02:48:26;101549.53;;;5.10;100.00
48652;BME280;34442;52.362;-1.302;2023-03-03T02:50:51;101555.44;;;5.04;100.00
48652;BME280;34442;52.362;-1.302;2023-03-03T02:53:17;101555.72;;;5.20;100.00
48652;BME280;34442;52.362;-1.302;2023-03-03T02:55:42;101562.03;;;5.09;100.00
48652;BME280;34442;52.362;-1.302;2023-03-03T02:58:08;101567.66;;;4.96;100.00
48652;BME280;34442;52.362;-1.302;2023-03-03T03:00:33;101564.56;;;4.91;100.00
48652;BME280;34442;52.362;-1.302;2023-03-03T03:02:58;101563.56;;;4.92;100.00
48652;BME280;34442;52.362;-1.302;2023-03-03T03:05:24;101563.84;;;4.89;100.00
48652;BME280;34442;52.362;-1.302;2023-03-03T03:07:49;101564.44;;;5.03;100.00
48652;BME280;34442;52.362;-1.302;2023-03-03T03:10:14;101559.06;;;5.32;100.00
48652;BME280;34442;52.362;-1.302;2023-03-03T03:12:40;101553.22;;;4.99;100.00
48652;BME280;34442;52.362;-1.302;2023-03-03T03:15:05;101561.59;;;5.14;100.00
48652;BME280;34442;52.362;-1.302;2023-03-03T03:17:35;101552.88;;;5.21;100.00
48652;BME280;34442;52.362;-1.302;2023-03-03T03:20:00;101552.34;;;5.08;100.00
48652;BME280;34442;52.362;-1.302;2023-03-03T03:22:26;101550.53;;;4.99;100.00
48652;BME280;34442;52.362;-1.302;2023-03-03T03:24:51;101563.44;;;5.04;100.00
48652;BME280;34442;52.362;-1.302;2023-03-03T03:27:16;101556.00;;;4.97;100.00
48652;BME280;34442;52.362;-1.302;2023-03-03T03:29:43;101554.19;;;4.88;100.00
48652;BME280;34442;52.362;-1.302;2023-03-03T03:32:08;101561.34;;;4.78;100.00
48652;BME280;34442;52.362;-1.302;2023-03-03T03:34:34;101562.91;;;4.90;100.00
48652;BME280;34442;52.362;-1.302;2023-03-03T03:37:02;101555.72;;;5.01;100.00
48652;BME280;34442;52.362;-1.302;2023-03-03T03:39:27;101551.66;;;5.06;100.00
48652;BME280;34442;52.362;-1.302;2023-03-03T03:41:52;101561.75;;;4.93;100.00
48652;BME280;34442;52.362;-1.302;2023-03-03T03:44:18;101555.44;;;5.04;100.00
48652;BME280;34442;52.362;-1.302;2023-03-03T03:46:43;101561.31;;;4.97;100.00
48652;BME280;34442;52.362;-1.302;2023-03-03T03:49:08;101555.31;;;4.95;100.00
48652;BME280;34442;52.362;-1.302;2023-03-03T03:51:34;101551.81;;;4.95;100.00
48652;BME280;34442;52.362;-1.302;2023-03-03T03:54:02;101556.28;;;5.04;100.00
48652;BME280;34442;52.362;-1.302;2023-03-03T03:56:28;101549.53;;;5.10;100.00
48652;BME280;34442;52.362;-1.302;2023-03-03T03:58:53;101551.22;;;5.01;100.00
48652;BME280;34442;52.362;-1.302;2023-03-03T04:01:18;101549.97;;;5.05;100.00
48652;BME280;34442;52.362;-1.302;2023-03-03T04:03:44;101546.22;;;4.98;100.00
48652;BME280;34442;52.362;-1.302;2023-03-03T04:06:09;101548.16;;;4.86;100.00
48652;BME280;34442;52.362;-1.302;2023-03-03T04:08:35;101537.75;;;5.12;100.00
48652;BME280;34442;52.362;-1.302;2023-03-03T04:11:00;101547.75;;;5.10;100.00
48652;BME280;34442;52.362;-1.302;2023-03-03T04:13:25;101544.50;;;5.16;100.00
48652;BME280;34442;52.362;-1.302;2023-03-03T04:15:53;101543.94;;;5.03;100.00
48652;BME280;34442;52.362;-1.302;2023-03-03T04:18:18;101541.25;;;5.13;100.00
48652;BME280;34442;52.362;-1.302;2023-03-03T04:20:44;101543.25;;;5.11;100.00
48652;BME280;34442;52.362;-1.302;2023-03-03T04:23:09;101541.97;;;5.15;100.00
48652;BME280;34442;52.362;-1.302;2023-03-03T04:25:34;101538.59;;;5.13;100.00
48652;BME280;34442;52.362;-1.302;2023-03-03T04:28:00;101540.28;;;5.14;100.00
48652;BME280;34442;52.362;-1.302;2023-03-03T04:30:25;101535.50;;;5.17;100.00
48652;BME280;34442;52.362;-1.302;2023-03-03T04:32:51;101539.03;;;5.08;100.00
48652;BME280;34442;52.362;-1.302;2023-03-03T04:35:17;101533.53;;;5.19;100.00
48652;BME280;34442;52.362;-1.302;2023-03-03T04:37:42;101546.59;;;5.22;100.00
48652;BME280;34442;52.362;-1.302;2023-03-03T04:40:09;101544.91;;;5.21;100.00
48652;BME280;34442;52.362;-1.302;2023-03-03T04:42:35;101535.06;;;5.22;100.00
48652;BME280;34442;52.362;-1.302;2023-03-03T04:45:01;101539.28;;;5.25;100.00
48652;BME280;34442;52.362;-1.302;2023-03-03T04:47:27;101547.97;;;5.27;100.00
48652;BME280;34442;52.362;-1.302;2023-03-03T04:49:52;101545.44;;;5.25;100.00
48652;BME280;34442;52.362;-1.302;2023-03-03T04:52:17;101544.50;;;5.16;100.00
48652;BME280;34442;52.362;-1.302;2023-03-03T04:54:43;101548.56;;;5.11;100.00
48652;BME280;34442;52.362;-1.302;2023-03-03T04:57:08;101550.28;;;5.02;100.00
48652;BME280;34442;52.362;-1.302;2023-03-03T04:59:34;101550.09;;;5.13;100.00
48652;BME280;34442;52.362;-1.302;2023-03-03T05:02:00;101554.03;;;5.09;100.00
48652;BME280;34442;52.362;-1.302;2023-03-03T05:04:25;101556.44;;;5.03;100.00
48652;BME280;34442;52.362;-1.302;2023-03-03T05:06:50;101550.94;;;5.04;100.00
48652;BME280;34442;52.362;-1.302;2023-03-03T05:09:16;101552.34;;;5.08;100.00
48652;BME280;34442;52.362;-1.302;2023-03-03T05:11:41;101555.72;;;5.10;100.00
48652;BME280;34442;52.362;-1.302;2023-03-03T05:14:06;101550.66;;;4.97;100.00
48652;BME280;34442;52.362;-1.302;2023-03-03T05:16:32;101550.94;;;5.04;100.00
48652;BME280;34442;52.362;-1.302;2023-03-03T05:19:00;101554.88;;;5.10;100.00
48652;BME280;34442;52.362;-1.302;2023-03-03T05:21:25;101551.66;;;5.16;100.00
48652;BME280;34442;52.362;-1.302;2023-03-03T05:23:50;101553.59;;;5.14;100.00
48652;BME280;34442;52.362;-1.302;2023-03-03T05:26:16;101556.72;;;5.00;100.00
48652;BME280;34442;52.362;-1.302;2023-03-03T05:28:42;101556.88;;;4.98;100.00
48652;BME280;34442;52.362;-1.302;2023-03-03T05:31:07;101557.25;;;4.93;100.00
48652;BME280;34442;52.362;-1.302;2023-03-03T05:33:32;101557.28;;;5.03;100.00
48652;BME280;34442;52.362;-1.302;2023-03-03T05:35:58;101557.97;;;5.15;100.00
48652;BME280;34442;52.362;-1.302;2023-03-03T05:38:24;101559.91;;;5.13;100.00
48652;BME280;34442;52.362;-1.302;2023-03-03T05:40:49;101551.81;;;5.14;100.00
48652;BME280;34442;52.362;-1.302;2023-03-03T05:43:15;101566.94;;;5.23;100.00
48652;BME280;34442;52.362;-1.302;2023-03-03T05:45:40;101560.75;;;5.23;100.00
48652;BME280;34442;52.362;-1.302;2023-03-03T05:48:06;101559.78;;;5.24;100.00
48652;BME280;34442;52.362;-1.302;2023-03-03T05:50:31;101567.66;;;5.06;100.00
48652;BME280;34442;52.362;-1.302;2023-03-03T05:52:57;101568.50;;;4.87;100.00
48652;BME280;34442;52.362;-1.302;2023-03-03T05:55:23;101563.03;;;4.79;100.00
48652;BME280;34442;52.362;-1.302;2023-03-03T05:57:48;101568.34;;;4.69;100.00
48652;BME280;34442;52.362;-1.302;2023-03-03T06:00:15;101569.56;;;4.56;100.00
48652;BME280;34442;52.362;-1.302;2023-03-03T06:02:41;101567.06;;;4.64;100.00
48652;BME280;34442;52.362;-1.302;2023-03-03T06:05:08;101566.53;;;4.70;100.00
48652;BME280;34442;52.362;-1.302;2023-03-03T06:07:34;101573.22;;;4.55;100.00
48652;BME280;34442;52.362;-1.302;2023-03-03T06:09:59;101577.00;;;4.52;100.00
48652;BME280;34442;52.362;-1.302;2023-03-03T06:12:25;101570.69;;;4.43;100.00
48652;BME280;34442;52.362;-1.302;2023-03-03T06:14:50;101578.41;;;4.46;100.00
48652;BME280;34442;52.362;-1.302;2023-03-03T06:17:16;101576.47;;;4.48;100.00
48652;BME280;34442;52.362;-1.302;2023-03-03T06:19:41;101585.69;;;4.44;100.00
48652;BME280;34442;52.362;-1.302;2023-03-03T06:22:07;101584.56;;;4.47;100.00
48652;BME280;34442;52.362;-1.302;2023-03-03T06:24:33;101590.56;;;4.39;100.00
48652;BME280;34442;52.362;-1.302;2023-03-03T06:26:59;101582.56;;;4.39;100.00
48652;BME280;34442;52.362;-1.302;2023-03-03T06:29:26;101584.16;;;4.52;100.00
48652;BME280;34442;52.362;-1.302;2023-03-03T06:31:51;101577.97;;;4.51;100.00
48652;BME280;34442;52.362;-1.302;2023-03-03T06:34:18;101576.16;;;4.42;100.00
48652;BME280;34442;52.362;-1.302;2023-03-03T06:36:43;101579.50;;;4.44;100.00
48652;BME280;34442;52.362;-1.302;2023-03-03T06:39:09;101574.19;;;4.44;100.00
48652;BME280;34442;52.362;-1.302;2023-03-03T06:41:35;101580.91;;;4.38;100.00
48652;BME280;34442;52.362;-1.302;2023-03-03T06:44:00;101574.47;;;4.41;100.00
48652;BME280;34442;52.362;-1.302;2023-03-03T06:46:26;101582.06;;;4.45;100.00
48652;BME280;34442;52.362;-1.302;2023-03-03T06:48:52;101584.28;;;4.50;100.00
48652;BME280;34442;52.362;-1.302;2023-03-03T06:51:32;101577.56;;;4.46;100.00
48652;BME280;34442;52.362;-1.302;2023-03-03T06:54:02;101577.72;;;4.54;100.00
48652;BME280;34442;52.362;-1.302;2023-03-03T06:56:34;101584.59;;;4.57;100.00
48652;BME280;34442;52.362;-1.302;2023-03-03T06:59:00;101589.88;;;4.47;100.00
48652;BME280;34442;52.362;-1.302;2023-03-03T07:01:32;101589.63;;;4.50;100.00
48652;BME280;34442;52.362;-1.302;2023-03-03T07:03:59;101585.97;;;4.51;100.00
48652;BME280;34442;52.362;-1.302;2023-03-03T07:06:25;101588.22;;;4.46;100.00
48652;BME280;34442;52.362;-1.302;2023-03-03T07:08:52;101594.38;;;4.56;100.00
48652;BME280;34442;52.362;-1.302;2023-03-03T07:11:20;101599.44;;;4.59;100.00
48652;BME280;34442;52.362;-1.302;2023-03-03T07:13:51;101593.69;;;4.64;100.00
48652;BME280;34442;52.362;-1.302;2023-03-03T07:16:18;101597.63;;;4.60;100.00
48652;BME280;34442;52.362;-1.302;2023-03-03T07:18:56;101610.19;;;4.38;100.00
48652;BME280;34442;52.362;-1.302;2023-03-03T07:21:32;101617.81;;;4.53;100.00
48652;BME280;34442;52.362;-1.302;2023-03-03T07:24:00;101606.91;;;4.65;100.00
48652;BME280;34442;52.362;-1.302;2023-03-03T07:26:33;101608.69;;;4.65;100.00
48652;BME280;34442;52.362;-1.302;2023-03-03T07:29:25;101606.75;;;4.57;100.00
48652;BME280;34442;52.362;-1.302;2023-03-03T07:31:52;101614.31;;;4.71;100.00
48652;BME280;34442;52.362;-1.302;2023-03-03T07:34:21;101615.56;;;4.77;100.00
48652;BME280;34442;52.362;-1.302;2023-03-03T07:36:55;101623.31;;;4.80;100.00
48652;BME280;34442;52.362;-1.302;2023-03-03T07:39:34;101622.88;;;4.75;100.00
48652;BME280;34442;52.362;-1.302;2023-03-03T07:44:50;101628.06;;;4.67;100.00
48652;BME280;34442;52.362;-1.302;2023-03-03T07:47:29;101625.53;;;4.75;100.00
48652;BME280;34442;52.362;-1.302;2023-03-03T07:49:58;101628.22;;;4.75;100.00
48652;BME280;34442;52.362;-1.302;2023-03-03T07:52:40;101629.72;;;4.68;100.00
48652;BME280;34442;52.362;-1.302;2023-03-03T07:57:51;101630.03;;;4.84;100.00
48652;BME280;34442;52.362;-1.302;2023-03-03T08:02:44;101634.69;;;4.82;100.00
48652;BME280;34442;52.362;-1.302;2023-03-03T08:07:46;101644.94;;;5.06;100.00
48652;BME280;34442;52.362;-1.302;2023-03-03T08:12:57;101635.25;;;5.05;100.00
48652;BME280;34442;52.362;-1.302;2023-03-03T08:15:30;101651.78;;;4.89;100.00
48652;BME280;34442;52.362;-1.302;2023-03-03T08:17:57;101640.84;;;4.92;100.00
48652;BME280;34442;52.362;-1.302;2023-03-03T08:22:54;101646.59;;;4.97;100.00
48652;BME280;34442;52.362;-1.302;2023-03-03T08:25:19;101647.16;;;5.01;100.00
48652;BME280;34442;52.362;-1.302;2023-03-03T08:27:45;101649.44;;;5.15;100.00
48652;BME280;34442;52.362;-1.302;2023-03-03T08:30:10;101647.88;;;5.13;100.00
48652;BME280;34442;52.362;-1.302;2023-03-03T08:32:36;101641.56;;;5.14;100.00
48652;BME280;34442;52.362;-1.302;2023-03-03T08:35:01;101659.38;;;5.04;100.00
48652;BME280;34442;52.362;-1.302;2023-03-03T08:37:27;101658.97;;;4.98;100.00
48652;BME280;34442;52.362;-1.302;2023-03-03T08:39:52;101663.72;;;5.05;100.00
48652;BME280;34442;52.362;-1.302;2023-03-03T08:42:17;101665.97;;;5.09;100.00
48652;BME280;34442;52.362;-1.302;2023-03-03T08:44:43;101658.28;;;5.35;100.00
48652;BME280;34442;52.362;-1.302;2023-03-03T08:47:09;101656.63;;;6.65;100.00
48652;BME280;34442;52.362;-1.302;2023-03-03T08:49:34;101656.22;;;7.06;100.00
48652;BME280;34442;52.362;-1.302;2023-03-03T08:51:59;101658.81;;;7.15;100.00
48652;BME280;34442;52.362;-1.302;2023-03-03T08:54:25;101655.00;;;7.36;100.00
48652;BME280;34442;52.362;-1.302;2023-03-03T08:56:50;101661.13;;;7.46;100.00
48652;BME280;34442;52.362;-1.302;2023-03-03T08:59:16;101660.94;;;7.47;100.00
48652;BME280;34442;52.362;-1.302;2023-03-03T09:01:41;101660.59;;;7.68;99.37
48652;BME280;34442;52.362;-1.302;2023-03-03T09:04:09;101660.34;;;7.54;99.43
48652;BME280;34442;52.362;-1.302;2023-03-03T09:06:34;101660.34;;;7.18;100.00
48652;BME280;34442;52.362;-1.302;2023-03-03T09:09:00;101665.84;;;6.53;100.00
48652;BME280;34442;52.362;-1.302;2023-03-03T09:11:27;101674.50;;;5.81;100.00
48652;BME280;34442;52.362;-1.302;2023-03-03T09:14:00;101666.91;;;5.95;100.00
48652;BME280;34442;52.362;-1.302;2023-03-03T09:16:29;101672.91;;;5.88;100.00
48652;BME280;34442;52.362;-1.302;2023-03-03T09:19:14;101662.69;;;5.83;100.00
48652;BME280;34442;52.362;-1.302;2023-03-03T09:21:40;101669.84;;;6.02;100.00
48652;BME280;34442;52.362;-1.302;2023-03-03T09:24:17;101672.19;;;6.15;100.00
48652;BME280;34442;52.362;-1.302;2023-03-03T09:26:46;101665.84;;;6.26;100.00
48652;BME280;34442;52.362;-1.302;2023-03-03T09:29:32;101664.41;;;6.31;100.00
48652;BME280;34442;52.362;-1.302;2023-03-03T09:34:42;101670.88;;;6.29;100.00
48652;BME280;34442;52.362;-1.302;2023-03-03T09:37:23;101672.97;;;6.35;100.00
48652;BME280;34442;52.362;-1.302;2023-03-03T09:39:54;101668.28;;;6.37;100.00
48652;BME280;34442;52.362;-1.302;2023-03-03T09:45:37;101668.59;;;7.42;100.00
48652;BME280;34442;52.362;-1.302;2023-03-03T09:48:38;101663.97;;;7.96;97.21
48652;BME280;34442;52.362;-1.302;2023-03-03T09:51:03;101666.44;;;8.16;94.64
48652;BME280;34442;52.362;-1.302;2023-03-03T09:56:15;101660.25;;;7.89;90.89
48652;BME280;34442;52.362;-1.302;2023-03-03T10:09:45;101679.63;;;8.09;90.66
48652;BME280;34442;52.362;-1.302;2023-03-03T10:17:49;101678.25;;;7.79;90.86
48652;BME280;34442;52.362;-1.302;2023-03-03T10:23:25;101689.97;;;8.04;88.97
48652;BME280;34442;52.362;-1.302;2023-03-03T10:26:09;101685.75;;;8.02;90.43
48652;BME280;34442;52.362;-1.302;2023-03-03T10:28:51;101685.16;;;8.08;91.91
48652;BME280;34442;52.362;-1.302;2023-03-03T10:42:16;101691.41;;;8.16;77.65
48652;BME280;34442;52.362;-1.302;2023-03-03T10:47:56;101691.28;;;8.26;83.93
48652;BME280;34442;52.362;-1.302;2023-03-03T10:53:16;101694.44;;;8.21;85.44
48652;BME280;34442;52.362;-1.302;2023-03-03T10:58:44;101694.28;;;7.97;88.26
48652;BME280;34442;52.362;-1.302;2023-03-03T11:01:20;101694.44;;;8.21;86.93
48652;BME280;34442;52.362;-1.302;2023-03-03T11:04:02;101694.31;;;8.05;87.29
48652;BME280;34442;52.362;-1.302;2023-03-03T11:06:41;101701.75;;;8.11;86.66
48652;BME280;34442;52.362;-1.302;2023-03-03T11:12:14;101696.13;;;8.49;84.63
48652;BME280;34442;52.362;-1.302;2023-03-03T11:14:53;101706.13;;;8.73;86.27
48652;BME280;34442;52.362;-1.302;2023-03-03T11:20:02;101705.53;;;8.53;85.69
48652;BME280;34442;52.362;-1.302;2023-03-03T11:22:55;101707.53;;;8.59;82.72
48652;BME280;34442;52.362;-1.302;2023-03-03T11:28:04;101715.34;;;8.18;83.35
48652;BME280;34442;52.362;-1.302;2023-03-03T11:33:40;101711.72;;;8.27;83.07
48652;BME280;34442;52.362;-1.302;2023-03-03T11:36:52;101718.94;;;8.53;80.84
48652;BME280;34442;52.362;-1.302;2023-03-03T11:39:12;101723.72;;;8.41;85.82
48652;BME280;34442;52.362;-1.302;2023-03-03T11:41:59;101718.56;;;8.56;82.66
48652;BME280;34442;52.362;-1.302;2023-03-03T11:44:28;101717.25;;;8.60;86.03
48652;BME280;34442;52.362;-1.302;2023-03-03T11:47:03;101715.84;;;8.39;81.13
48652;BME280;34442;52.362;-1.302;2023-03-03T11:49:40;101721.69;;;8.69;84.38
48652;BME280;34442;52.362;-1.302;2023-03-03T11:55:16;101727.53;;;8.64;85.06
48652;BME280;34442;52.362;-1.302;2023-03-03T12:00:31;101722.50;;;8.35;86.43
48652;BME280;34442;52.362;-1.302;2023-03-03T12:03:17;101719.19;;;8.41;83.77
48652;BME280;34442;52.362;-1.302;2023-03-03T12:06:08;101719.19;;;8.41;83.53
48652;BME280;34442;52.362;-1.302;2023-03-03T12:22:30;101720.72;;;8.44;83.67
48652;BME280;34442;52.362;-1.302;2023-03-03T12:25:08;101715.38;;;8.44;84.96
48652;BME280;34442;52.362;-1.302;2023-03-03T12:27:44;101710.97;;;8.43;85.07
48652;BME280;34442;52.362;-1.302;2023-03-03T12:35:38;101707.28;;;8.18;87.32
48652;BME280;34442;52.362;-1.302;2023-03-03T12:40:50;101708.97;;;7.93;86.80
48652;BME280;34442;52.362;-1.302;2023-03-03T12:43:34;101704.03;;;8.06;86.04
48652;BME280;34442;52.362;-1.302;2023-03-03T12:48:44;101699.84;;;8.04;87.72
48652;BME280;34442;52.362;-1.302;2023-03-03T12:51:19;101698.72;;;8.14;86.76
48652;BME280;34442;52.362;-1.302;2023-03-03T13:02:01;101694.25;;;8.15;83.35
48652;BME280;34442;52.362;-1.302;2023-03-03T13:07:22;101690.75;;;8.49;85.18
48652;BME280;34442;52.362;-1.302;2023-03-03T13:10:20;101680.41;;;8.54;84.50
48652;BME280;34442;52.362;-1.302;2023-03-03T13:13:06;101692.75;;;8.47;85.50
48652;BME280;34442;52.362;-1.302;2023-03-03T13:15:38;101692.75;;;8.47;85.35
48652;BME280;34442;52.362;-1.302;2023-03-03T13:18:28;101684.44;;;8.58;83.09
48652;BME280;34442;52.362;-1.302;2023-03-03T13:23:40;101687.19;;;8.14;86.60
48652;BME280;34442;52.362;-1.302;2023-03-03T13:26:12;101688.19;;;8.39;86.40
48652;BME280;34442;52.362;-1.302;2023-03-03T13:31:30;101687.34;;;8.38;85.90
48652;BME280;34442;52.362;-1.302;2023-03-03T13:33:58;101676.81;;;8.37;86.47
48652;BME280;34442;52.362;-1.302;2023-03-03T13:39:11;101675.69;;;8.21;87.04
48652;BME280;34442;52.362;-1.302;2023-03-03T13:44:45;101669.13;;;8.16;87.54
48652;BME280;34442;52.362;-1.302;2023-03-03T13:52:31;101666.53;;;8.32;86.56
48652;BME280;34442;52.362;-1.302;2023-03-03T13:55:10;101655.41;;;8.45;85.22
48652;BME280;34442;52.362;-1.302;2023-03-03T14:00:15;101658.44;;;8.50;86.58
48652;BME280;34442;52.362;-1.302;2023-03-03T14:07:59;101668.47;;;8.22;85.81
48652;BME280;34442;52.362;-1.302;2023-03-03T14:10:33;101666.59;;;8.14;87.68
48652;BME280;34442;52.362;-1.302;2023-03-03T14:13:18;101657.13;;;8.28;85.43
48652;BME280;34442;52.362;-1.302;2023-03-03T14:15:55;101658.41;;;8.16;86.91
48652;BME280;34442;52.362;-1.302;2023-03-03T14:18:33;101662.94;;;8.15;87.49
48652;BME280;34442;52.362;-1.302;2023-03-03T14:21:20;101660.66;;;8.29;84.41
48652;BME280;34442;52.362;-1.302;2023-03-03T14:24:10;101653.34;;;8.39;87.75
48652;BME280;34442;52.362;-1.302;2023-03-03T14:26:45;101659.66;;;8.64;86.43
48652;BME280;34442;52.362;-1.302;2023-03-03T14:29:29;101667.66;;;8.56;85.21
48652;BME280;34442;52.362;-1.302;2023-03-03T14:31:57;101655.06;;;8.40;87.32
48652;BME280;34442;52.362;-1.302;2023-03-03T14:36:57;101655.03;;;8.14;88.34
48652;BME280;34442;52.362;-1.302;2023-03-03T14:39:36;101653.16;;;8.06;88.96
48652;BME280;34442;52.362;-1.302;2023-03-03T14:42:12;101654.78;;;8.25;90.30
48652;BME280;34442;52.362;-1.302;2023-03-03T14:47:11;101651.69;;;8.38;90.29
48652;BME280;34442;52.362;-1.302;2023-03-03T14:49:41;101656.78;;;8.23;89.69
48652;BME280;34442;52.362;-1.302;2023-03-03T14:54:44;101648.44;;;8.34;90.25
48652;BME280;34442;52.362;-1.302;2023-03-03T15:00:24;101648.63;;;8.75;88.08
48652;BME280;34442;52.362;-1.302;2023-03-03T15:05:48;101644.31;;;8.82;87.34
48652;BME280;34442;52.362;-1.302;2023-03-03T15:08:24;101636.72;;;8.69;87.92
48652;BME280;34442;52.362;-1.302;2023-03-03T15:10:52;101632.97;;;8.54;89.28
48652;BME280;34442;52.362;-1.302;2023-03-03T15:18:25;101623.06;;;8.47;89.28
48652;BME280;34442;52.362;-1.302;2023-03-03T15:21:09;101616.09;;;8.62;85.81
48652;BME280;34442;52.362;-1.302;2023-03-03T15:29:58;101609.75;;;8.71;86.25
48652;BME280;34442;52.362;-1.302;2023-03-03T15:34:56;101604.56;;;8.78;85.91
48652;BME280;34442;52.362;-1.302;2023-03-03T15:37:56;101606.94;;;8.81;83.38
48652;BME280;34442;52.362;-1.302;2023-03-03T15:40:44;101601.72;;;8.79;83.94
48652;BME280;34442;52.362;-1.302;2023-03-03T15:50:58;101591.88;;;9.12;84.65
48652;BME280;34442;52.362;-1.302;2023-03-03T16:04:13;101594.69;;;8.78;82.79
48652;BME280;34442;52.362;-1.302;2023-03-03T16:07:13;101599.38;;;8.84;83.06
48652;BME280;34442;52.362;-1.302;2023-03-03T16:09:55;101600.88;;;8.79;83.75
48652;BME280;34442;52.362;-1.302;2023-03-03T16:15:27;101600.03;;;8.70;84.46
48652;BME280;34442;52.362;-1.302;2023-03-03T16:23:22;101600.53;;;8.74;85.29
48652;BME280;34442;52.362;-1.302;2023-03-03T16:26:09;101600.06;;;8.78;83.60